Time;durP1;ratioP1;P1;durP2;ratioP2;P2;SDS_P1;SDS_P2;PMS_P1;PMS_P2;Temp;Humidity;BMP_temperature;BMP_pressure;BME280_temperature;BME280_humidity;BME280_pressure;Samples;Min_cycle;Max_cycle;Signal;HPM_P1;HPM_P2
2024/03/11 00:01:39;;;;;;;0.50;0.50;;;5.20;99.90;;;;;;5007870;28;20094;-77
2024/03/11 00:04:06;;;;;;;0.50;0.50;;;5.10;99.90;;;;;;5002503;28;20081;-78
2024/03/11 00:06:35;;;;;;;0.52;0.52;;;5.10;99.90;;;;;;5001080;28;20738;-78
2024/03/11 00:09:03;;;;;;;0.95;0.95;;;5.20;99.90;;;;;;5007723;28;20096;-82
2024/03/11 00:11:29;;;;;;;1.17;1.17;;;5.20;99.90;;;;;;5006278;28;20115;-80
2024/03/11 00:13:56;;;;;;;0.47;0.47;;;5.20;99.90;;;;;;4985622;28;20531;-78
2024/03/11 00:16:22;;;;;;;1.40;1.40;;;5.20;99.90;;;;;;4969407;28;20401;-79
2024/03/11 00:18:49;;;;;;;0.80;0.80;;;5.20;99.90;;;;;;5000267;28;21494;-78
2024/03/11 00:21:15;;;;;;;0.57;0.57;;;5.20;99.90;;;;;;5009321;28;20121;-79
2024/03/11 00:23:40;;;;;;;0.60;0.60;;;5.20;99.90;;;;;;5004695;28;20435;-78
2024/03/11 00:26:06;;;;;;;0.60;0.60;;;5.10;99.90;;;;;;4974162;28;20140;-79
2024/03/11 00:28:33;;;;;;;0.60;0.60;;;7.00;99.90;;;;;;5006544;28;20076;-80
2024/03/11 00:31:00;;;;;;;0.60;0.60;;;5.10;99.90;;;;;;5006492;28;20072;-78
2024/03/11 00:33:28;;;;;;;0.60;0.60;;;5.00;99.90;;;;;;5008664;28;20421;-80
2024/03/11 00:35:54;;;;;;;0.60;0.60;;;5.00;99.90;;;;;;5026364;28;20034;-79
2024/03/11 00:38:20;;;;;;;0.57;0.57;;;5.00;99.90;;;;;;5010633;28;20084;-75
2024/03/11 00:40:46;;;;;;;2.67;1.13;;;4.90;99.90;;;;;;5016056;28;20110;-78
2024/03/11 00:43:11;;;;;;;0.52;0.52;;;4.80;99.90;;;;;;5009508;28;20065;-79
2024/03/11 00:45:37;;;;;;;0.50;0.50;;;4.80;99.90;;;;;;5012154;28;20041;-78
2024/03/11 00:48:06;;;;;;;1.75;1.40;;;4.80;99.90;;;;;;5018414;28;20496;-78
2024/03/11 00:50:33;;;;;;;0.95;0.80;;;4.70;99.90;;;;;;4991128;28;20442;-78
2024/03/11 00:53:00;;;;;;;0.60;0.60;;;4.70;99.90;;;;;;4993203;28;20041;-80
2024/03/11 00:55:26;;;;;;;0.90;0.90;;;4.70;99.90;;;;;;5013955;28;20459;-77
2024/03/11 00:57:52;;;;;;;0.52;0.52;;;4.60;99.90;;;;;;5014263;28;20041;-79
2024/03/11 01:00:22;;;;;;;0.70;0.70;;;4.60;99.90;;;;;;5006522;28;20044;-79
2024/03/11 01:02:51;;;;;;;1.23;1.23;;;4.60;99.90;;;;;;5013832;28;20077;-80
2024/03/11 01:05:16;;;;;;;1.13;1.13;;;4.60;99.90;;;;;;4995202;28;20481;-78
2024/03/11 01:07:45;;;;;;;0.60;0.60;;;4.60;99.90;;;;;;5012513;28;20053;-78
2024/03/11 01:10:15;;;;;;;2.25;2.15;;;4.60;99.90;;;;;;4997141;28;20088;-77
2024/03/11 01:12:41;;;;;;;0.90;0.90;;;4.60;99.90;;;;;;5011627;28;20056;-77
2024/03/11 01:15:08;;;;;;;0.40;0.40;;;4.60;99.90;;;;;;4979473;28;20033;-78
2024/03/11 01:17:37;;;;;;;0.50;0.50;;;4.70;99.90;;;;;;5037023;28;20045;-77
2024/03/11 01:20:04;;;;;;;0.60;0.60;;;4.40;99.90;;;;;;4997076;28;20037;-77
2024/03/11 01:22:29;;;;;;;2.45;1.35;;;4.80;99.90;;;;;;4998437;28;20041;-78
2024/03/11 01:24:56;;;;;;;0.60;0.60;;;4.80;99.90;;;;;;5016856;28;20586;-77
2024/03/11 01:27:24;;;;;;;1.15;1.15;;;4.90;99.90;;;;;;5014438;28;20045;-77
2024/03/11 01:29:50;;;;;;;0.57;0.57;;;5.00;99.90;;;;;;5017302;28;20049;-76
2024/03/11 01:32:16;;;;;;;0.50;0.50;;;5.00;99.90;;;;;;5011943;28;20041;-76
2024/03/11 01:34:42;;;;;;;1.85;1.10;;;5.00;99.90;;;;;;5014305;28;20051;-77
2024/03/11 01:37:08;;;;;;;0.63;0.63;;;5.10;99.90;;;;;;4991358;28;20038;-78
2024/03/11 01:39:43;;;;;;;0.90;0.90;;;5.10;99.90;;;;;;4999742;28;20040;-78
2024/03/11 01:42:16;;;;;;;0.52;0.52;;;5.10;99.90;;;;;;5012893;28;20484;-77
2024/03/11 01:44:48;;;;;;;1.40;1.40;;;5.20;99.90;;;;;;5017111;28;20041;-77
2024/03/11 01:47:14;;;;;;;0.60;0.60;;;5.20;99.90;;;;;;4992044;28;20072;-78
2024/03/11 01:49:43;;;;;;;0.68;0.68;;;5.10;99.90;;;;;;5017209;28;20061;-77
2024/03/11 01:52:16;;;;;;;0.70;0.70;;;5.10;99.90;;;;;;5014555;28;20045;-77
2024/03/11 01:54:42;;;;;;;0.60;0.60;;;5.10;99.90;;;;;;5025125;28;20029;-77
2024/03/11 01:57:08;;;;;;;;;;;5.10;99.90;;;;;;5016095;28;20037;-78
2024/03/11 01:59:37;;;;;;;0.50;0.50;;;5.10;99.90;;;;;;5009167;28;19978;-77
2024/03/11 02:02:10;;;;;;;0.45;0.45;;;5.10;99.90;;;;;;5028785;28;20052;-79
2024/03/11 02:04:36;;;;;;;0.93;0.93;;;5.10;99.90;;;;;;5029200;28;20052;-77
2024/03/11 02:07:03;;;;;;;0.60;0.60;;;5.10;99.90;;;;;;5003334;28;20076;-80
2024/03/11 02:09:34;;;;;;;0.82;0.82;;;5.20;99.90;;;;;;4996223;28;20056;-78
2024/03/11 02:12:00;;;;;;;0.60;0.60;;;5.20;99.90;;;;;;5009283;28;20048;-78
2024/03/11 02:14:26;;;;;;;1.40;1.40;;;5.20;99.90;;;;;;5011444;28;20045;-78
2024/03/11 02:16:52;;;;;;;;;;;5.30;99.90;;;;;;4986340;28;20041;-78
2024/03/11 02:19:18;;;;;;;2.47;1.67;;;5.30;99.90;;;;;;5011600;28;19979;-78
2024/03/11 02:21:46;;;;;;;;;;;5.40;99.90;;;;;;5013437;28;20045;-79
2024/03/11 02:24:16;;;;;;;0.52;0.52;;;5.40;99.90;;;;;;5021906;28;19924;-78
2024/03/11 02:26:45;;;;;;;1.27;1.17;;;5.50;99.90;;;;;;5017117;28;20118;-80
2024/03/11 02:29:12;;;;;;;0.50;0.50;;;4.90;99.90;;;;;;5002405;28;20049;-79
2024/03/11 02:31:37;;;;;;;0.77;0.70;;;5.50;99.90;;;;;;5017354;28;20103;-79
2024/03/11 02:34:05;;;;;;;0.60;0.60;;;5.50;99.90;;;;;;5016248;28;20069;-77
2024/03/11 02:36:31;;;;;;;0.50;0.50;;;5.60;99.90;;;;;;5036670;28;20041;-78
2024/03/11 02:38:57;;;;;;;0.60;0.60;;;5.60;99.90;;;;;;4985312;28;20049;-78
2024/03/11 02:41:23;;;;;;;0.45;0.45;;;5.60;99.90;;;;;;5001089;28;20477;-77
2024/03/11 02:43:49;;;;;;;0.55;0.55;;;5.60;99.90;;;;;;5001124;28;20037;-77
2024/03/11 02:46:15;;;;;;;0.50;0.50;;;5.60;99.90;;;;;;5017649;28;20045;-80
2024/03/11 02:48:41;;;;;;;0.30;0.30;;;5.70;99.90;;;;;;5004389;28;20048;-79
2024/03/11 02:51:06;;;;;;;0.73;0.73;;;5.70;99.90;;;;;;5021525;28;20082;-79
2024/03/11 02:53:33;;;;;;;0.40;0.40;;;5.70;99.90;;;;;;4994820;28;20559;-79
2024/03/11 02:56:07;;;;;;;0.40;0.40;;;5.70;99.90;;;;;;4983904;28;20088;-80
2024/03/11 02:58:37;;;;;;;0.47;0.47;;;5.80;99.90;;;;;;5018102;28;20057;-78
2024/03/11 03:01:03;;;;;;;0.80;0.80;;;5.80;99.90;;;;;;5033518;28;20052;-77
2024/03/11 03:03:28;;;;;;;2.65;2.45;;;5.80;99.90;;;;;;5015297;28;20089;-78
2024/03/11 03:05:54;;;;;;;0.75;0.75;;;5.80;99.90;;;;;;4998605;28;20041;-78
2024/03/11 03:08:20;;;;;;;0.60;0.60;;;5.80;99.90;;;;;;5018238;28;20065;-78
2024/03/11 03:10:46;;;;;;;0.85;0.85;;;5.90;99.90;;;;;;5000255;28;20126;-76
2024/03/11 03:13:12;;;;;;;0.85;0.85;;;5.90;99.90;;;;;;5032384;28;20459;-77
2024/03/11 03:15:37;;;;;;;0.60;0.60;;;5.90;99.90;;;;;;5012532;28;20042;-77
2024/03/11 03:18:05;;;;;;;0.47;0.47;;;5.90;99.90;;;;;;4997664;28;20041;-78
2024/03/11 03:20:31;;;;;;;0.63;0.63;;;5.90;99.90;;;;;;4999682;28;20123;-78
2024/03/11 03:22:57;;;;;;;0.40;0.40;;;5.90;99.90;;;;;;4998703;28;20504;-80
2024/03/11 03:25:30;;;;;;;0.50;0.50;;;5.90;99.90;;;;;;5013669;28;20033;-79
2024/03/11 03:27:56;;;;;;;0.68;0.68;;;5.90;99.90;;;;;;5017726;28;20311;-78
2024/03/11 03:30:22;;;;;;;0.57;0.57;;;5.90;99.90;;;;;;4997283;28;20072;-78
2024/03/11 03:32:48;;;;;;;0.60;0.60;;;5.90;99.90;;;;;;4983327;28;20103;-78
2024/03/11 03:35:14;;;;;;;0.57;0.57;;;5.90;99.90;;;;;;5010858;28;20053;-78
2024/03/11 03:37:40;;;;;;;0.70;0.70;;;5.80;99.90;;;;;;5013370;28;20049;-80
2024/03/11 03:40:18;;;;;;;;;;;5.80;99.90;;;;;;4983316;28;20396;-79
2024/03/11 03:42:46;;;;;;;0.47;0.47;;;5.80;99.90;;;;;;5006631;28;19917;-79
2024/03/11 03:45:13;;;;;;;0.40;0.40;;;5.80;99.90;;;;;;5010274;28;20047;-79
2024/03/11 03:47:39;;;;;;;0.40;0.40;;;7.00;99.90;;;;;;4999773;28;20052;-79
2024/03/11 03:50:05;;;;;;;0.50;0.50;;;5.80;99.90;;;;;;5027015;28;20059;-79
2024/03/11 03:52:31;;;;;;;;;;;5.80;99.90;;;;;;4996880;28;20045;-78
2024/03/11 03:54:56;;;;;;;3.83;3.33;;;5.80;99.90;;;;;;5013428;28;19958;-77
2024/03/11 03:57:22;;;;;;;0.50;0.50;;;5.80;99.90;;;;;;5013465;28;20404;-78
2024/03/11 03:59:48;;;;;;;0.50;0.50;;;5.80;99.90;;;;;;5019708;28;20041;-77
2024/03/11 04:02:14;;;;;;;0.60;0.60;;;5.80;99.90;;;;;;4997028;28;20516;-77
2024/03/11 04:04:41;;;;;;;0.60;0.60;;;5.80;99.90;;;;;;5015070;28;20045;-77
2024/03/11 04:07:07;;;;;;;1.45;0.90;;;5.80;99.90;;;;;;5015109;28;20063;-76
2024/03/11 04:09:33;;;;;;;1.60;0.80;;;5.80;99.90;;;;;;5019142;28;20123;-77
2024/03/11 04:11:59;;;;;;;0.40;0.40;;;5.80;99.90;;;;;;4979690;28;20121;-76
2024/03/11 04:14:24;;;;;;;0.80;0.80;;;5.70;99.90;;;;;;5030211;28;20132;-78
2024/03/11 04:16:50;;;;;;;0.70;0.70;;;5.80;99.90;;;;;;5002485;28;20095;-78
2024/03/11 04:19:18;;;;;;;0.43;0.43;;;5.70;99.90;;;;;;5016747;28;20048;-78
2024/03/11 04:21:44;;;;;;;0.85;0.85;;;5.70;99.90;;;;;;5013287;28;20103;-79
2024/03/11 04:24:11;;;;;;;0.50;0.50;;;5.70;99.90;;;;;;5000835;28;20045;-76
2024/03/11 04:26:38;;;;;;;1.08;0.98;;;5.70;99.90;;;;;;5013177;28;20080;-79
2024/03/11 04:29:05;;;;;;;0.40;0.40;;;5.70;99.90;;;;;;5036549;28;20045;-79
2024/03/11 04:31:33;;;;;;;0.73;0.73;;;5.70;99.90;;;;;;4999644;28;20049;-79
2024/03/11 04:33:59;;;;;;;1.15;1.15;;;5.70;99.90;;;;;;5013311;28;20046;-79
2024/03/11 04:36:25;;;;;;;0.60;0.60;;;5.70;99.90;;;;;;5012192;28;20033;-78
2024/03/11 04:38:51;;;;;;;0.60;0.60;;;5.70;99.90;;;;;;5014401;28;20041;-79
2024/03/11 04:41:17;;;;;;;0.70;0.70;;;5.70;99.90;;;;;;5031416;28;20049;-78
2024/03/11 04:43:42;;;;;;;0.98;0.98;;;5.70;99.90;;;;;;4998887;28;20037;-78
2024/03/11 04:46:11;;;;;;;0.40;0.40;;;5.70;99.90;;;;;;5012737;28;20033;-77
2024/03/11 04:48:36;;;;;;;1.42;1.35;;;5.70;99.90;;;;;;4965987;28;20195;-78
2024/03/11 04:51:04;;;;;;;0.60;0.60;;;5.70;99.90;;;;;;4996340;28;20564;-78
2024/03/11 04:53:30;;;;;;;0.50;0.50;;;5.70;99.90;;;;;;5008182;28;20136;-80
2024/03/11 04:55:56;;;;;;;1.25;1.25;;;5.60;99.90;;;;;;5009278;28;20124;-77
2024/03/11 04:58:23;;;;;;;1.08;1.08;;;5.70;99.90;;;;;;4996918;28;20036;-77
2024/03/11 05:00:50;;;;;;;1.45;1.35;;;5.70;99.90;;;;;;4989896;28;20033;-78
2024/03/11 05:03:16;;;;;;;0.55;0.55;;;5.70;99.90;;;;;;5013689;28;20511;-78
2024/03/11 05:05:41;;;;;;;0.98;0.93;;;5.60;99.90;;;;;;5010108;28;20116;-78
2024/03/11 05:08:09;;;;;;;0.60;0.60;;;5.60;99.90;;;;;;5033956;28;20493;-77
2024/03/11 05:10:35;;;;;;;0.55;0.55;;;5.60;99.90;;;;;;5015666;28;20055;-79
2024/03/11 05:13:03;;;;;;;2.10;2.00;;;5.60;99.90;;;;;;5015290;28;20038;-79
2024/03/11 05:15:29;;;;;;;0.50;0.50;;;5.60;99.90;;;;;;5011782;28;20073;-78
2024/03/11 05:17:55;;;;;;;0.60;0.60;;;5.60;99.90;;;;;;5012888;28;20795;-78
2024/03/11 05:20:21;;;;;;;0.93;0.93;;;5.60;99.90;;;;;;5034337;28;20045;-79
2024/03/11 05:22:48;;;;;;;;;;;5.50;99.90;;;;;;5030490;28;20124;-79
2024/03/11 05:25:20;;;;;;;0.75;0.75;;;5.50;99.90;;;;;;5015022;28;20039;-78
2024/03/11 05:27:47;;;;;;;1.35;1.35;;;5.50;99.90;;;;;;5008682;28;20072;-79
2024/03/11 05:30:14;;;;;;;1.60;1.50;;;5.50;99.90;;;;;;5009158;28;20064;-78
2024/03/11 05:32:43;;;;;;;0.60;0.60;;;5.50;99.90;;;;;;4995947;28;20519;-79
2024/03/11 05:35:09;;;;;;;1.00;1.00;;;5.50;99.90;;;;;;4997747;28;20041;-77
2024/03/11 05:37:35;;;;;;;3.28;3.13;;;5.50;99.90;;;;;;4997490;28;20042;-77
2024/03/11 05:40:05;;;;;;;0.68;0.68;;;5.50;99.90;;;;;;5014712;28;20048;-78
2024/03/11 05:42:32;;;;;;;3.42;1.67;;;5.50;99.90;;;;;;5014040;28;20081;-78
2024/03/11 05:44:59;;;;;;;1.27;1.20;;;5.50;99.90;;;;;;5014811;28;20105;-78
2024/03/11 05:47:25;;;;;;;0.55;0.55;;;5.50;99.90;;;;;;5013530;28;20094;-78
2024/03/11 05:49:53;;;;;;;1.98;1.88;;;5.40;99.90;;;;;;5029697;28;20076;-78
2024/03/11 05:52:21;;;;;;;0.63;0.63;;;5.50;99.90;;;;;;5033187;28;20042;-78
2024/03/11 05:54:50;;;;;;;0.50;0.50;;;5.50;99.90;;;;;;5036364;28;20440;-79
2024/03/11 05:57:25;;;;;;;0.50;0.50;;;5.50;99.90;;;;;;5035280;28;20068;-78
2024/03/11 05:59:52;;;;;;;0.68;0.68;;;5.50;99.90;;;;;;4988622;28;20044;-78
2024/03/11 06:02:18;;;;;;;0.60;0.60;;;5.30;99.90;;;;;;5019051;28;20496;-78
2024/03/11 06:04:45;;;;;;;0.88;0.88;;;5.50;99.90;;;;;;5034273;28;20037;-77
2024/03/11 06:07:24;;;;;;;0.60;0.60;;;5.50;99.90;;;;;;5029153;28;20466;-80
2024/03/11 06:09:52;;;;;;;0.60;0.60;;;5.50;99.90;;;;;;5010390;28;20087;-79
2024/03/11 06:12:19;;;;;;;0.43;0.43;;;5.50;99.90;;;;;;5012618;28;20030;-78
2024/03/11 06:14:45;;;;;;;1.05;1.05;;;5.50;99.90;;;;;;5034618;28;20554;-78
2024/03/11 06:17:12;;;;;;;1.30;1.30;;;5.40;99.90;;;;;;5036658;28;20127;-77
2024/03/11 06:19:38;;;;;;;1.08;1.08;;;5.50;99.90;;;;;;5034025;28;20408;-79
2024/03/11 06:22:05;;;;;;;1.33;1.33;;;5.80;99.90;;;;;;4979256;28;20044;-79
2024/03/11 06:24:32;;;;;;;0.57;0.57;;;5.50;99.90;;;;;;5031159;28;20041;-79
2024/03/11 06:26:58;;;;;;;0.77;0.77;;;5.50;99.90;;;;;;5012414;28;20536;-80
2024/03/11 06:29:28;;;;;;;1.52;1.42;;;5.50;99.90;;;;;;5005904;28;20037;-79
2024/03/11 06:31:55;;;;;;;0.80;0.80;;;5.50;99.90;;;;;;5035518;28;20041;-77
2024/03/11 06:34:29;;;;;;;0.50;0.50;;;5.50;99.90;;;;;;5038019;28;20043;-78
2024/03/11 06:36:55;;;;;;;1.48;1.45;;;5.50;99.90;;;;;;5041809;28;20036;-77
2024/03/11 06:39:21;;;;;;;1.05;1.05;;;5.50;99.90;;;;;;5018796;28;20032;-78
2024/03/11 06:41:47;;;;;;;0.50;0.50;;;5.50;99.90;;;;;;4996756;28;20077;-80
2024/03/11 06:44:13;;;;;;;0.82;0.82;;;5.40;99.90;;;;;;5017416;28;20068;-79
2024/03/11 06:46:39;;;;;;;0.60;0.60;;;5.60;99.90;;;;;;5029532;28;20041;-79
2024/03/11 06:49:05;;;;;;;0.63;0.63;;;5.60;99.90;;;;;;5029850;28;20115;-78
2024/03/11 06:51:31;;;;;;;;;;;5.60;99.90;;;;;;5015538;28;20065;-78
2024/03/11 06:53:59;;;;;;;1.58;1.50;;;5.60;99.90;;;;;;5027786;28;20380;-79
2024/03/11 06:56:27;;;;;;;0.70;0.70;;;5.60;99.90;;;;;;5037050;28;20102;-78
2024/03/11 06:58:53;;;;;;;0.70;0.70;;;5.60;99.90;;;;;;5014738;28;20662;-78
2024/03/11 07:01:19;;;;;;;0.55;0.55;;;5.60;99.90;;;;;;5012202;28;20106;-78
2024/03/11 07:03:45;;;;;;;1.08;1.08;;;5.60;99.90;;;;;;5013364;28;20041;-78
2024/03/11 07:06:11;;;;;;;0.73;0.73;;;5.70;99.90;;;;;;5012919;28;20048;-77
2024/03/11 07:08:37;;;;;;;0.93;0.93;;;5.70;99.90;;;;;;5027737;28;20044;-77
2024/03/11 07:11:04;;;;;;;1.25;1.17;;;5.70;99.90;;;;;;5013247;28;20124;-78
2024/03/11 07:13:35;;;;;;;2.25;2.15;;;5.80;99.90;;;;;;5014027;28;20037;-78
2024/03/11 07:16:04;;;;;;;0.50;0.50;;;5.80;99.90;;;;;;5018209;28;20037;-78
2024/03/11 07:18:31;;;;;;;0.40;0.40;;;5.80;99.90;;;;;;5019615;28;20072;-78
2024/03/11 07:20:57;;;;;;;0.55;0.55;;;5.80;99.90;;;;;;5015686;28;20455;-80
2024/03/11 07:23:28;;;;;;;0.80;0.80;;;5.80;99.90;;;;;;5029752;28;20124;-80
2024/03/11 07:25:58;;;;;;;0.80;0.80;;;5.90;99.90;;;;;;4994093;28;20470;-78
2024/03/11 07:28:31;;;;;;;1.00;1.00;;;5.90;99.90;;;;;;5012773;28;20630;-80
2024/03/11 07:30:57;;;;;;;0.50;0.50;;;5.90;99.90;;;;;;5026484;28;20457;-78
2024/03/11 07:33:24;;;;;;;0.98;0.98;;;6.00;99.90;;;;;;4997079;28;20038;-80
2024/03/11 07:35:52;;;;;;;0.47;0.47;;;6.00;99.90;;;;;;5013715;28;20056;-80
2024/03/11 07:38:19;;;;;;;0.50;0.50;;;6.00;99.90;;;;;;5032455;28;20079;-79
2024/03/11 07:40:45;;;;;;;0.65;0.65;;;6.10;99.90;;;;;;5031011;28;20118;-79
2024/03/11 07:43:13;;;;;;;0.43;0.43;;;6.10;99.90;;;;;;5030990;28;20458;-79
2024/03/11 07:45:39;;;;;;;0.60;0.60;;;6.20;99.90;;;;;;4995473;28;20134;-81
2024/03/11 07:48:08;;;;;;;0.50;0.50;;;6.20;99.90;;;;;;5017624;28;20148;-79
2024/03/11 07:50:34;;;;;;;0.50;0.50;;;6.30;99.90;;;;;;5030683;28;20056;-79
2024/03/11 07:52:59;;;;;;;0.65;0.65;;;6.40;99.90;;;;;;5014171;28;20056;-78
2024/03/11 07:55:28;;;;;;;0.50;0.50;;;6.40;99.90;;;;;;5032394;28;20041;-81
2024/03/11 07:57:54;;;;;;;0.60;0.60;;;6.40;99.90;;;;;;5031631;28;20386;-82
2024/03/11 08:00:29;;;;;;;0.88;0.88;;;6.40;99.90;;;;;;5032250;28;20215;-81
2024/03/11 08:02:58;;;;;;;3.38;0.73;;;6.40;99.90;;;;;;5018113;28;20037;-77
2024/03/11 08:05:25;;;;;;;0.52;0.52;;;6.40;99.90;;;;;;5012207;28;20492;-80
2024/03/11 08:07:51;;;;;;;0.82;0.82;;;6.50;99.90;;;;;;5000890;28;20104;-78
2024/03/11 08:10:18;;;;;;;1.85;1.75;;;6.60;99.90;;;;;;5013398;28;20064;-79
2024/03/11 08:12:45;;;;;;;0.55;0.55;;;6.50;99.90;;;;;;5030593;28;20060;-78
2024/03/11 08:15:12;;;;;;;2.85;0.52;;;6.60;99.90;;;;;;4997089;28;20520;-79
2024/03/11 08:17:43;;;;;;;0.75;0.75;;;6.60;99.90;;;;;;4979318;28;20049;-79
2024/03/11 08:20:10;;;;;;;0.40;0.40;;;6.60;99.90;;;;;;5004351;28;20041;-83
2024/03/11 08:22:37;;;;;;;0.60;0.60;;;6.70;99.90;;;;;;5037389;28;20049;-82
2024/03/11 08:25:08;;;;;;;1.15;1.15;;;6.40;99.90;;;;;;5016459;28;20044;-84
2024/03/11 08:27:35;;;;;;;0.52;0.52;;;6.80;99.90;;;;;;5028908;28;21674;-81
2024/03/11 08:30:01;;;;;;;0.50;0.50;;;6.80;99.90;;;;;;5029849;28;20129;-80
2024/03/11 08:32:26;;;;;;;0.90;0.90;;;7.20;99.90;;;;;;5014413;28;20479;-78
2024/03/11 08:34:55;;;;;;;0.50;0.50;;;7.00;99.90;;;;;;5011796;28;20033;-79
2024/03/11 08:37:23;;;;;;;0.75;0.75;;;7.10;99.90;;;;;;5013389;28;20136;-77
2024/03/11 08:39:49;;;;;;;0.50;0.50;;;7.20;99.90;;;;;;5028947;28;20026;-77
2024/03/11 08:42:15;;;;;;;0.50;0.50;;;7.20;99.90;;;;;;5014620;28;20037;-79
2024/03/11 08:44:43;;;;;;;0.57;0.57;;;7.30;99.90;;;;;;5015263;28;20076;-79
2024/03/11 08:47:11;;;;;;;1.85;0.65;;;7.40;99.90;;;;;;5015848;28;20052;-77
2024/03/11 08:49:40;;;;;;;0.85;0.85;;;7.40;99.90;;;;;;4994563;28;20416;-77
2024/03/11 08:52:06;;;;;;;0.30;0.30;;;7.50;99.90;;;;;;5029379;28;20045;-78
2024/03/11 08:54:35;;;;;;;0.43;0.43;;;7.50;99.90;;;;;;5030266;28;20412;-77
2024/03/11 08:57:01;;;;;;;0.40;0.40;;;7.60;99.90;;;;;;5028359;28;20146;-76
2024/03/11 08:59:30;;;;;;;0.40;0.40;;;7.60;99.90;;;;;;5029344;28;20060;-79
2024/03/11 09:01:57;;;;;;;0.40;0.40;;;7.70;99.90;;;;;;5032841;28;20052;-76
2024/03/11 09:04:29;;;;;;;0.45;0.45;;;7.70;99.90;;;;;;5011045;28;20124;-78
2024/03/11 09:06:57;;;;;;;0.60;0.60;;;7.70;99.90;;;;;;5031214;28;20053;-77
2024/03/11 09:09:26;;;;;;;0.68;0.68;;;7.70;99.90;;;;;;5011131;28;20036;-77
2024/03/11 09:11:57;;;;;;;0.40;0.40;;;7.80;99.90;;;;;;5029374;28;20120;-77
2024/03/11 09:14:26;;;;;;;0.50;0.50;;;7.70;99.90;;;;;;5029651;28;20553;-77
2024/03/11 09:16:54;;;;;;;0.43;0.43;;;7.70;99.90;;;;;;5028349;28;20033;-78
2024/03/11 09:19:26;;;;;;;0.63;0.63;;;7.60;99.90;;;;;;5027599;28;20046;-76
2024/03/11 09:21:53;;;;;;;8.88;1.88;;;7.50;99.90;;;;;;5027453;28;20108;-76
2024/03/11 09:24:20;;;;;;;;;;;7.50;99.90;;;;;;5027551;28;20116;-77
2024/03/11 09:26:49;;;;;;;0.38;0.38;;;7.50;99.90;;;;;;5026063;28;20044;-77
2024/03/11 09:29:19;;;;;;;2.50;1.88;;;7.60;99.90;;;;;;5028243;28;20543;-79
2024/03/11 09:31:49;;;;;;;0.65;0.65;;;7.60;99.90;;;;;;5035113;28;20033;-77
2024/03/11 09:34:18;;;;;;;0.40;0.40;;;7.70;99.90;;;;;;5020328;28;20451;-77
2024/03/11 09:36:44;;;;;;;0.50;0.50;;;7.80;99.90;;;;;;5017952;28;20047;-77
2024/03/11 09:39:13;;;;;;;0.35;0.35;;;7.80;99.90;;;;;;4997708;28;20092;-77
2024/03/11 09:41:50;;;;;;;0.38;0.38;;;7.80;99.90;;;;;;5014549;28;20041;-77
2024/03/11 09:44:18;;;;;;;0.60;0.60;;;7.80;99.90;;;;;;5007405;28;20037;-76
2024/03/11 09:46:56;;;;;;;0.30;0.30;;;7.80;99.90;;;;;;5035465;28;20037;-77
2024/03/11 09:49:23;;;;;;;0.50;0.50;;;7.80;99.90;;;;;;5033012;28;20416;-77
2024/03/11 09:51:51;;;;;;;1.23;1.23;;;7.70;99.90;;;;;;5030614;28;20052;-77
2024/03/11 09:54:17;;;;;;;0.40;0.40;;;7.70;99.90;;;;;;5033176;28;20041;-76
2024/03/11 09:56:48;;;;;;;0.32;0.32;;;7.60;99.90;;;;;;5001908;28;20033;-77
2024/03/11 09:59:19;;;;;;;0.60;0.60;;;7.60;99.90;;;;;;5035593;28;20091;-76
2024/03/11 10:01:52;;;;;;;0.45;0.45;;;7.60;99.90;;;;;;5015116;28;20040;-78
2024/03/11 10:04:26;;;;;;;1.00;0.80;;;7.50;99.90;;;;;;5033073;28;20041;-77
2024/03/11 10:07:00;;;;;;;0.50;0.50;;;7.50;99.90;;;;;;5013723;28;20037;-77
2024/03/11 10:09:32;;;;;;;1.08;0.98;;;7.50;99.90;;;;;;5018059;28;20033;-77
2024/03/11 10:12:08;;;;;;;0.50;0.50;;;7.40;99.90;;;;;;5031912;28;20048;-76
2024/03/11 10:14:42;;;;;;;1.20;1.00;;;7.30;99.90;;;;;;5032672;28;20040;-77
2024/03/11 10:17:24;;;;;;;0.90;0.90;;;7.40;99.90;;;;;;5033752;28;20167;-76
2024/03/11 10:19:59;;;;;;;0.40;0.40;;;7.50;99.90;;;;;;5028145;28;20037;-77
2024/03/11 10:22:35;;;;;;;1.45;1.35;;;7.60;99.90;;;;;;5015752;28;20033;-78
2024/03/11 10:25:04;;;;;;;0.43;0.43;;;7.80;99.90;;;;;;5032776;28;20396;-78
2024/03/11 10:27:39;;;;;;;0.40;0.40;;;8.00;99.90;;;;;;5032821;28;20099;-78
2024/03/11 10:30:21;;;;;;;0.90;0.90;;;8.20;99.90;;;;;;5032996;28;20084;-80
2024/03/11 10:33:01;;;;;;;0.82;0.82;;;8.30;99.90;;;;;;5032846;28;20080;-79
2024/03/11 10:35:33;;;;;;;2.28;0.60;;;8.40;99.90;;;;;;5034743;28;20560;-77
2024/03/11 10:38:13;;;;;;;0.57;0.57;;;8.60;99.90;;;;;;5035366;28;20037;-78
2024/03/11 10:40:42;;;;;;;0.88;0.88;;;8.70;99.90;;;;;;5013584;28;20045;-76
2024/03/11 10:43:23;;;;;;;0.75;0.60;;;8.60;99.90;;;;;;5012624;28;20183;-77
2024/03/11 10:45:49;;;;;;;0.50;0.50;;;8.80;99.90;;;;;;5032537;28;20132;-77
2024/03/11 10:48:15;;;;;;;0.43;0.43;;;8.80;99.90;;;;;;5016729;28;20562;-78
2024/03/11 10:50:41;;;;;;;0.75;0.75;;;8.90;99.90;;;;;;5031219;28;20049;-77
2024/03/11 10:53:15;;;;;;;0.30;0.30;;;8.80;99.90;;;;;;5014732;28;20104;-79
2024/03/11 10:55:42;;;;;;;0.57;0.57;;;8.80;99.90;;;;;;5015313;28;20095;-78
2024/03/11 10:58:13;;;;;;;1.13;1.13;;;8.80;99.90;;;;;;5014100;28;20052;-77
2024/03/11 11:00:43;;;;;;;0.30;0.30;;;8.80;99.90;;;;;;5011666;28;20366;-80
2024/03/11 11:03:13;;;;;;;0.90;0.90;;;8.80;99.90;;;;;;4997627;28;20102;-78
2024/03/11 11:05:49;;;;;;;0.52;0.47;;;8.70;99.90;;;;;;5011642;28;20049;-79
2024/03/11 11:08:17;;;;;;;5.18;1.20;;;7.70;99.90;;;;;;5013380;28;20428;-78
2024/03/11 11:10:45;;;;;;;0.77;0.77;;;8.70;99.90;;;;;;4998438;28;20037;-79
2024/03/11 11:13:17;;;;;;;0.73;0.73;;;8.80;99.90;;;;;;5036139;28;20504;-78
2024/03/11 11:15:45;;;;;;;0.70;0.70;;;8.70;99.90;;;;;;5032541;28;20120;-79
2024/03/11 11:18:13;;;;;;;1.00;0.85;;;8.70;99.90;;;;;;5018321;28;20040;-78
2024/03/11 11:20:47;;;;;;;0.57;0.57;;;8.70;99.90;;;;;;5013025;28;20048;-79
2024/03/11 11:23:27;;;;;;;0.55;0.55;;;8.70;99.90;;;;;;5014529;28;20489;-77
2024/03/11 11:25:56;;;;;;;0.90;0.90;;;8.90;99.90;;;;;;5015826;28;20044;-76
2024/03/11 11:28:30;;;;;;;0.60;0.60;;;9.00;99.90;;;;;;5031068;28;20543;-78
2024/03/11 11:31:27;;;;;;;1.35;1.25;;;9.10;99.90;;;;;;5027985;28;20058;-78
2024/03/11 11:33:57;;;;;;;;;;;9.10;99.90;;;;;;5031368;28;20042;-77
2024/03/11 11:36:32;;;;;;;1.20;1.10;;;9.10;99.90;;;;;;5012938;28;20377;-78
2024/03/11 11:39:17;;;;;;;1.70;1.60;;;9.20;99.90;;;;;;4996927;28;20041;-78
2024/03/11 11:41:50;;;;;;;0.40;0.40;;;9.30;99.90;;;;;;5033494;28;20448;-77
2024/03/11 11:44:28;;;;;;;0.68;0.68;;;9.30;99.90;;;;;;5020535;28;20037;-77
2024/03/11 11:47:17;;;;;;;2.35;1.55;;;9.40;99.90;;;;;;5027703;28;20440;-79
2024/03/11 11:49:43;;;;;;;2.75;1.67;;;9.50;99.90;;;;;;5008866;28;20126;-79
2024/03/11 11:52:10;;;;;;;;;;;9.50;99.90;;;;;;5013288;28;20061;-78
2024/03/11 11:54:36;;;;;;;;;;;9.60;99.90;;;;;;5032831;28;19917;-79
2024/03/11 11:57:13;;;;;;;0.20;0.20;;;9.50;99.90;;;;;;5030531;28;19971;-78
2024/03/11 11:59:44;;;;;;;0.88;0.82;;;9.50;99.90;;;;;;5029899;28;20115;-79
2024/03/11 12:02:21;;;;;;;3.33;1.77;;;9.50;99.90;;;;;;5032727;28;20117;-79
2024/03/11 12:05:00;;;;;;;0.40;0.40;;;9.30;99.90;;;;;;5012000;28;20061;-77
2024/03/11 12:07:28;;;;;;;0.90;0.90;;;9.30;99.90;;;;;;5031033;28;20390;-78
2024/03/11 12:10:02;;;;;;;0.85;0.85;;;9.30;99.90;;;;;;5011370;28;20052;-79
2024/03/11 12:12:30;;;;;;;1.27;0.65;;;9.30;99.90;;;;;;5000192;28;20082;-79
2024/03/11 12:14:56;;;;;;;1.10;1.10;;;9.40;99.90;;;;;;5026555;28;20037;-77
2024/03/11 12:17:25;;;;;;;1.40;0.85;;;9.50;99.90;;;;;;5002272;28;20123;-79
2024/03/11 12:20:13;;;;;;;1.60;1.10;;;9.50;99.90;;;;;;5031992;28;20595;-78
2024/03/11 12:22:39;;;;;;;1.13;0.85;;;9.50;99.90;;;;;;5032500;28;20527;-77
2024/03/11 12:25:07;;;;;;;0.88;0.70;;;9.40;99.90;;;;;;5030025;28;20045;-78
2024/03/11 12:27:34;;;;;;;2.38;1.55;;;9.40;99.90;;;;;;5034820;28;20041;-79
2024/03/11 12:30:05;;;;;;;0.32;0.32;;;9.50;99.90;;;;;;5030236;28;20152;-79
2024/03/11 12:32:31;;;;;;;0.55;0.55;;;9.50;99.90;;;;;;5009705;28;20095;-79
2024/03/11 12:34:59;;;;;;;1.15;1.05;;;9.60;99.90;;;;;;5026067;28;20522;-80
2024/03/11 12:37:25;;;;;;;1.17;1.08;;;9.70;99.90;;;;;;5031558;28;20134;-79
2024/03/11 12:39:51;;;;;;;1.08;0.57;;;9.70;99.90;;;;;;5031024;28;20037;-79
2024/03/11 12:42:28;;;;;;;1.98;1.00;;;9.80;99.90;;;;;;5011763;28;20041;-79
2024/03/11 12:44:59;;;;;;;0.57;0.57;;;9.90;99.90;;;;;;5031747;28;20045;-80
2024/03/11 12:47:25;;;;;;;0.68;0.68;;;10.00;99.90;;;;;;4996321;28;20087;-78
2024/03/11 12:49:51;;;;;;;1.50;1.50;;;10.10;99.90;;;;;;5010912;28;20139;-80
2024/03/11 12:52:17;;;;;;;0.45;0.45;;;10.10;99.90;;;;;;4995975;28;20053;-81
2024/03/11 12:54:43;;;;;;;1.17;1.17;;;10.10;99.90;;;;;;5026969;28;20048;-79
2024/03/11 12:57:11;;;;;;;0.30;0.30;;;10.10;99.90;;;;;;5013302;28;20065;-80
2024/03/11 12:59:43;;;;;;;1.02;1.02;;;10.00;99.90;;;;;;5014710;28;20053;-80
2024/03/11 13:02:18;;;;;;;0.77;0.77;;;10.00;99.90;;;;;;5031392;28;20053;-79
2024/03/11 13:04:49;;;;;;;0.40;0.40;;;10.10;99.90;;;;;;5028714;28;20914;-79
2024/03/11 13:07:15;;;;;;;0.95;0.95;;;10.10;99.90;;;;;;5031007;28;20041;-79